Stations météo

Publicité
Salsburgh, Grande-Bretagne (99024): Température de l'air & dewpoint: 13.11.2017 20:00:00 - 19.11.2017 20:00:00 (GMT)Salsburgh, Grande-Bretagne (99024): Vitesse du vent & gusts: 13.11.2017 20:00:00 - 19.11.2017 20:00:00 (GMT)Salsburgh, Grande-Bretagne (99024): Direction du vent: 13.11.2017 20:00:00 - 19.11.2017 20:00:00 (GMT)Salsburgh, Grande-Bretagne (99024): Quantités de précipitations: 13.11.2017 20:00:00 - 19.11.2017 20:00:00 (GMT)
Date & Time tt [°C] td [°C] ff [km/h] ff [knt] fx [km/h] fx [knt] dd rr [mm]
19.11.2017 20:00:00 - - - - - - - -
19.11.2017 19:00:00 2,8 1,5 15 8 - - SSE 0,2
19.11.2017 18:00:00 2,8 1,1 13 7 - - S 0,0
19.11.2017 17:00:00 2,4 1,2 11 6 - - S 0,0
19.11.2017 16:00:00 2,1 1,0 8 4 - - S 0,0
19.11.2017 15:00:00 2,4 1,2 8 4 - - S 0,0
19.11.2017 14:00:00 3,0 1,7 9 5 - - S 0,0
19.11.2017 13:00:00 1,8 0,7 9 5 - - S 0,0
19.11.2017 12:00:00 - - - - - - - 0,0
19.11.2017 11:00:00 1,6 0,2 5 3 - - SW 0,0
19.11.2017 10:00:00 2,6 0,5 4 2 - - SW 0,0
19.11.2017 09:00:00 1,2 0,3 5 3 - - SW 0,0
19.11.2017 08:00:00 0,3 -0,4 8 4 - - W -
19.11.2017 07:00:00 0,1 -0,7 8 4 - - SW 0,0
19.11.2017 06:00:00 0,2 -1,0 11 6 - - W 0,0
19.11.2017 05:00:00 0,2 -1,7 8 4 - - WSW 0,0
19.11.2017 04:00:00 0,4 -1,6 9 5 - - W 0,0
19.11.2017 03:00:00 0,6 -1,8 9 5 - - W 0,0
19.11.2017 02:00:00 0,7 -1,7 9 5 - - W 0,0
19.11.2017 01:00:00 -0,6 -2,2 11 6 - - WSW 0,0
19.11.2017 00:00:00 -0,3 -1,9 13 7 - - WSW 0,0
18.11.2017 23:00:00 0,3 -1,4 13 7 - - W 0,0
18.11.2017 22:00:00 0,7 -1,1 16 9 - - W 0,0
18.11.2017 21:00:00 0,4 -1,5 13 7 - - WSW 0,0
18.11.2017 20:00:00 0,6 -1,3 11 6 - - WSW 0,0
18.11.2017 19:00:00 0,8 -1,2 22 12 - - W 0,0
18.11.2017 18:00:00 1,8 -1,0 13 7 - - W 0,0
18.11.2017 17:00:00 2,2 0,0 18 10 - - W 0,0
18.11.2017 16:00:00 2,7 0,3 18 10 - - WNW 0,0
18.11.2017 15:00:00 5,1 -0,1 24 13 - - WNW 0,0
18.11.2017 14:00:00 5,5 0,7 21 11 - - W 0,0
18.11.2017 13:00:00 4,4 1,3 26 14 - - WNW 0,0
18.11.2017 12:00:00 4,6 0,4 24 13 - - W 0,0
18.11.2017 11:00:00 4,4 0,4 15 8 - - W 0,0
18.11.2017 10:00:00 3,6 0,2 18 10 - - WNW 0,0
18.11.2017 09:00:00 2,2 0,5 15 8 - - W 0,0
18.11.2017 08:00:00 2,4 0,5 18 10 - - W 0,0
18.11.2017 07:00:00 2,8 0,4 18 10 - - W 0,0
18.11.2017 06:00:00 3,8 1,3 28 15 50 27 WNW 0,0
18.11.2017 05:00:00 3,9 1,8 29 16 61 33 WNW 0,0
18.11.2017 04:00:00 4,8 3,3 37 20 52 28 WNW 0,0
18.11.2017 03:00:00 5,0 4,2 29 16 46 25 W 0,0
18.11.2017 02:00:00 5,0 4,3 31 17 46 25 W 0,2
18.11.2017 01:00:00 5,3 3,8 34 18 52 28 W 0,0
18.11.2017 00:00:00 5,1 4,4 31 17 48 26 W 0,2
17.11.2017 23:00:00 5,3 4,0 35 19 50 27 W 0,0
17.11.2017 22:00:00 5,5 4,0 34 18 46 25 WSW 0,0
17.11.2017 21:00:00 4,9 3,4 31 17 50 27 WSW 0,0
17.11.2017 20:00:00 5,5 4,3 31 17 57 31 WSW 0,0
17.11.2017 19:00:00 5,7 4,1 35 19 50 27 WSW 0,0
17.11.2017 18:00:00 5,6 4,3 28 15 46 25 W 0,0
17.11.2017 17:00:00 5,5 4,0 29 16 54 29 W 0,0
17.11.2017 16:00:00 5,7 4,3 31 17 48 26 WSW 0,0
17.11.2017 15:00:00 5,8 4,9 29 16 55 30 WSW 0,2
17.11.2017 14:00:00 6,5 5,4 39 21 54 29 WSW 0,0
17.11.2017 13:00:00 5,6 4,9 29 16 54 29 WSW 0,6
17.11.2017 12:00:00 5,7 4,8 39 21 54 29 WSW 0,0
17.11.2017 11:00:00 5,5 4,3 28 15 50 27 SW 0,0
17.11.2017 10:00:00 5,4 3,8 39 21 52 28 WSW 0,0
17.11.2017 09:00:00 4,5 3,8 28 15 - - SW 0,0
17.11.2017 08:00:00 4,0 3,4 18 10 - - SW 0,0
17.11.2017 07:00:00 3,2 2,5 18 10 - - SSW 0,0
17.11.2017 06:00:00 3,2 2,3 21 11 - - SSW 0,0
17.11.2017 05:00:00 2,8 1,9 22 12 - - SW 0,0
17.11.2017 04:00:00 2,3 1,7 21 11 - - SW 0,0
17.11.2017 03:00:00 1,6 0,8 13 7 - - S 0,0
17.11.2017 02:00:00 1,1 0,7 18 10 - - SW 0,0
17.11.2017 01:00:00 1,5 0,9 13 7 - - SW 0,0
17.11.2017 00:00:00 1,6 0,9 13 7 - - SW 0,0
16.11.2017 23:00:00 1,7 0,8 11 6 - - SW 0,0
16.11.2017 22:00:00 1,8 1,0 16 9 - - WSW 0,0
16.11.2017 21:00:00 1,9 0,7 11 6 - - SSW 0,0
16.11.2017 20:00:00 2,5 1,3 15 8 - - SW 0,0
16.11.2017 19:00:00 2,8 1,8 22 12 - - WSW -
16.11.2017 18:00:00 3,3 2,0 16 9 - - SW 0,0
16.11.2017 17:00:00 3,8 1,7 29 16 - - W -
16.11.2017 16:00:00 3,7 1,3 18 10 - - WSW 0,0
16.11.2017 15:00:00 4,7 1,9 22 12 52 28 W 0,0
16.11.2017 14:00:00 5,8 1,1 28 15 48 26 W 0,0
16.11.2017 13:00:00 5,9 1,1 35 19 54 29 WNW 0,0
16.11.2017 12:00:00 5,3 2,0 34 18 50 27 W 0,0
16.11.2017 11:00:00 4,1 2,0 29 16 55 30 W 0,0
16.11.2017 10:00:00 3,8 2,2 26 14 - - W 0,0
16.11.2017 09:00:00 4,1 2,7 31 17 59 32 W 0,2
16.11.2017 08:00:00 5,2 4,6 39 21 65 35 W 0,2
16.11.2017 07:00:00 6,0 5,7 28 15 - - WSW 0,2
16.11.2017 06:00:00 6,2 5,9 26 14 63 34 WSW 3,0
16.11.2017 05:00:00 7,9 7,3 44 24 63 34 SSW 0,2
16.11.2017 04:00:00 8,4 7,1 46 25 67 36 SSW 0,0
16.11.2017 03:00:00 8,6 7,4 44 24 61 33 SW 0,0
16.11.2017 02:00:00 8,2 7,8 29 16 52 28 SSW 0,0
16.11.2017 01:00:00 7,2 7,1 24 13 - - S 0,2
16.11.2017 00:00:00 6,9 6,6 28 15 48 26 S 0,0
15.11.2017 23:00:00 6,7 6,1 39 21 52 28 SSW 0,0
15.11.2017 22:00:00 6,1 5,4 29 16 - - SSW 0,0
15.11.2017 21:00:00 5,3 4,7 22 12 - - S 0,0
15.11.2017 20:00:00 5,7 4,9 24 13 - - S 0,0
15.11.2017 19:00:00 5,5 4,6 26 14 - - S 0,0
15.11.2017 18:00:00 5,7 4,7 24 13 - - S 0,0
15.11.2017 17:00:00 5,7 5,0 18 10 - - S 0,0
15.11.2017 16:00:00 6,1 5,4 18 10 - - S 0,0
15.11.2017 15:00:00 6,6 5,3 18 10 - - S 0,0
15.11.2017 14:00:00 6,7 5,7 16 9 - - S 0,0
15.11.2017 13:00:00 6,6 5,7 15 8 - - S 0,2
15.11.2017 12:00:00 6,1 5,1 15 8 - - SSE 0,0
15.11.2017 11:00:00 5,7 5,0 13 7 - - SSE 0,0
15.11.2017 10:00:00 4,8 4,4 13 7 - - SSE 0,0
15.11.2017 09:00:00 4,1 3,8 8 4 - - SSE 0,0
15.11.2017 08:00:00 3,5 3,0 11 6 - - SSE 0,0
15.11.2017 07:00:00 4,0 3,6 5 3 - - S 0,0
15.11.2017 06:00:00 4,2 3,7 5 3 - - S 0,0
15.11.2017 05:00:00 4,3 3,7 9 5 - - WSW 0,0
15.11.2017 04:00:00 3,7 3,3 13 7 - - SW 0,0
15.11.2017 03:00:00 - - - - - - - 0,0
15.11.2017 02:00:00 3,8 3,4 9 5 - - SW -
15.11.2017 01:00:00 4,0 3,5 11 6 - - SW 0,0
15.11.2017 00:00:00 4,1 3,3 11 6 - - WSW 0,0
14.11.2017 23:00:00 4,8 4,4 16 9 - - W 0,0
14.11.2017 22:00:00 4,7 4,6 15 8 - - SW 0,0
14.11.2017 21:00:00 5,5 5,4 13 7 - - W 0,0
14.11.2017 20:00:00 5,3 5,2 11 6 - - W 0,0
14.11.2017 19:00:00 5,9 5,8 13 7 - - SW 0,0
14.11.2017 18:00:00 6,1 5,9 16 9 - - SW 0,0
14.11.2017 17:00:00 7,0 5,8 21 11 - - WSW -
14.11.2017 16:00:00 7,0 5,7 13 7 - - SW 0,0
14.11.2017 15:00:00 7,2 5,8 16 9 - - WSW 0,0
14.11.2017 14:00:00 7,7 5,9 15 8 - - W 0,0
14.11.2017 13:00:00 7,9 6,6 11 6 - - WSW 0,0
14.11.2017 12:00:00 - - - - - - - 0,0
14.11.2017 11:00:00 7,2 7,2 15 8 - - WSW 0,0
14.11.2017 10:00:00 6,5 6,5 9 5 - - WSW 0,0
14.11.2017 09:00:00 6,2 6,2 9 5 - - SW 0,0
14.11.2017 08:00:00 5,7 5,7 9 5 - - SW -
14.11.2017 07:00:00 5,8 5,8 13 7 - - WSW 0,0
14.11.2017 06:00:00 6,8 6,8 13 7 - - W 0,0
14.11.2017 05:00:00 7,0 7,0 15 8 - - W 0,0
14.11.2017 04:00:00 8,6 8,6 18 10 - - W 0,6
14.11.2017 03:00:00 9,5 9,5 24 13 - - W 0,8
14.11.2017 02:00:00 9,4 9,4 26 14 52 28 WSW 0,6
14.11.2017 01:00:00 9,0 9,0 35 19 50 27 SW 0,0
14.11.2017 00:00:00 8,1 8,1 34 18 46 25 SW 0,0
13.11.2017 23:00:00 7,8 7,7 31 17 48 26 SW -
13.11.2017 22:00:00 7,2 7,0 37 20 48 26 SW 0,0
13.11.2017 21:00:00 6,5 6,4 31 17 46 25 SSW 0,2
13.11.2017 20:00:00 6,1 5,9 35 19 48 26 SW 0,2

tt = Température de l'air
td = dewpoint
ff = Vitesse du vent
fx = gusts
dd = Direction du vent
rr = Quantités de précipitations

stations d'obs. à proximité